Time;durP1;ratioP1;P1;durP2;ratioP2;P2;SDS_P1;SDS_P2;PMS_P1;PMS_P2;Temp;Humidity;BMP_temperature;BMP_pressure;BME280_temperature;BME280_humidity;BME280_pressure;Samples;Min_cycle;Max_cycle;Signal;HPM_P1;HPM_P2
2022/06/19 00:02:21;;;;;;;12.05;4.53;;;;;;;19.91;54.82;100645.50;5137903;27;20081;-69
2022/06/19 00:04:51;;;;;;;13.45;5.10;;;;;;;19.80;55.04;100632.66;5138120;27;20130;-70
2022/06/19 00:07:18;;;;;;;18.38;4.43;;;;;;;19.76;55.47;100628.69;5137804;27;20077;-70
2022/06/19 00:09:45;;;;;;;17.67;5.15;;;;;;;19.83;55.17;100637.66;5137517;27;20141;-69
2022/06/19 00:12:12;;;;;;;15.27;5.70;;;;;;;19.83;55.13;100628.63;5137510;27;20061;-69
2022/06/19 00:14:39;;;;;;;12.13;5.28;;;;;;;19.89;54.91;100620.38;5137687;27;20138;-69
2022/06/19 00:17:07;;;;;;;11.52;5.57;;;;;;;19.81;55.17;100609.81;5137519;27;20134;-69
2022/06/19 00:19:33;;;;;;;15.25;5.80;;;;;;;19.84;55.19;100605.81;5137462;27;20483;-69
2022/06/19 00:22:00;;;;;;;10.43;5.78;;;;;;;19.88;55.12;100596.13;5137341;27;20083;-70
2022/06/19 00:24:29;;;;;;;17.73;6.30;;;;;;;19.79;55.41;100587.41;5115293;28;20098;-70
2022/06/19 00:26:56;;;;;;;13.38;6.18;;;;;;;19.76;55.32;100581.56;5117358;28;20104;-70
2022/06/19 00:29:23;;;;;;;12.68;5.35;;;;;;;19.57;55.83;100580.69;5116823;28;20077;-70
2022/06/19 00:31:49;;;;;;;17.25;5.07;;;;;;;19.54;56.08;100581.13;5116702;28;20471;-70
2022/06/19 00:34:16;;;;;;;15.88;5.82;;;;;;;19.56;56.06;100587.19;5116447;28;20116;-70
2022/06/19 00:36:45;;;;;;;14.98;5.60;;;;;;;19.64;55.84;100587.72;5116972;28;20139;-70
2022/06/19 00:39:11;;;;;;;11.88;5.53;;;;;;;19.58;55.85;100574.19;5116479;28;20090;-70
2022/06/19 00:41:39;;;;;;;14.45;6.30;;;;;;;19.60;55.76;100577.53;5116859;28;20051;-70
2022/06/19 00:44:09;;;;;;;14.20;5.47;;;;;;;19.44;56.35;100574.28;5116451;28;20047;-71
2022/06/19 00:46:59;;;;;;;15.43;5.40;;;;;;;19.36;56.65;100558.25;5116645;28;20047;-70
2022/06/19 00:49:34;;;;;;;16.70;5.60;;;;;;;19.33;56.79;100555.97;5116491;28;20531;-70
2022/06/19 00:52:09;;;;;;;11.88;5.45;;;;;;;19.42;56.39;100546.50;5116011;28;20086;-70
2022/06/19 00:54:41;;;;;;;18.95;6.13;;;;;;;19.38;56.25;100542.56;5116337;28;20083;-70
2022/06/19 00:57:08;;;;;;;12.60;4.97;;;;;;;19.43;56.46;100522.84;5116407;28;20439;-70
2022/06/19 00:59:38;;;;;;;16.40;5.72;;;;;;;19.29;56.43;100513.97;5116561;28;20059;-71
2022/06/19 01:02:06;;;;;;;12.60;5.03;;;;;;;19.31;56.50;100513.72;5116888;28;20047;-70
2022/06/19 01:04:42;;;;;;;17.42;5.25;;;;;;;19.27;56.69;100521.50;5116175;28;20404;-70
2022/06/19 01:07:26;;;;;;;10.65;5.00;;;;;;;19.20;56.64;100518.84;5116148;28;20083;-70
2022/06/19 01:09:53;;;;;;;8.32;4.45;;;;;;;19.04;57.38;100507.72;5116665;28;20043;-69
2022/06/19 01:12:22;;;;;;;13.05;4.97;;;;;;;18.98;57.43;100509.41;5115818;28;20047;-69
2022/06/19 01:14:53;;;;;;;13.30;5.20;;;;;;;18.88;58.09;100520.75;5115551;28;20090;-70
2022/06/19 01:17:20;;;;;;;15.35;4.93;;;;;;;18.91;57.88;100514.03;5115435;28;20131;-69
2022/06/19 01:19:47;;;;;;;15.25;4.97;;;;;;;18.86;58.21;100517.44;5115665;28;20489;-69
2022/06/19 01:22:32;;;;;;;15.38;5.07;;;;;;;18.80;58.29;100499.28;5115427;28;20079;-69
2022/06/19 01:25:04;;;;;;;13.75;4.75;;;;;;;18.79;58.41;100497.59;5124712;27;20051;-70
2022/06/19 01:30:22;;;;;;;12.20;4.70;;;;;;;18.70;58.82;100493.50;5135994;27;20055;-70
2022/06/19 01:32:50;;;;;;;11.45;5.13;;;;;;;18.57;59.16;100488.97;5135486;27;20083;-70
2022/06/19 01:35:20;;;;;;;15.88;5.00;;;;;;;18.61;59.27;100486.66;5135709;27;20075;-70
2022/06/19 01:37:49;;;;;;;14.98;5.28;;;;;;;18.62;59.16;100480.16;5135789;27;20167;-70
2022/06/19 01:40:20;;;;;;;10.48;5.28;;;;;;;18.58;59.13;100478.94;5135395;27;20079;-70
2022/06/19 01:42:47;;;;;;;12.80;5.45;;;;;;;18.66;59.00;100474.09;5135793;27;20465;-70
2022/06/19 01:45:15;;;;;;;15.30;5.30;;;;;;;18.60;59.21;100465.97;5135704;27;20134;-70
2022/06/19 01:47:42;;;;;;;14.20;5.15;;;;;;;18.51;59.36;100457.25;5117522;27;20444;-70
2022/06/19 01:50:15;;;;;;;16.08;5.63;;;;;;;18.52;59.40;100454.31;5135203;27;20138;-70
2022/06/19 01:52:42;;;;;;;9.55;5.00;;;;;;;18.50;59.57;100447.44;5135583;27;20466;-70
2022/06/19 01:55:18;;;;;;;13.75;5.10;;;;;;;18.50;59.30;100440.13;5135713;27;20083;-70
2022/06/19 01:57:50;;;;;;;13.90;5.13;;;;;;;18.55;59.34;100436.75;5135205;27;20135;-70
2022/06/19 02:00:31;;;;;;;9.68;4.70;;;;;;;18.57;59.34;100421.06;5135443;27;20138;-70
2022/06/19 02:03:04;;;;;;;10.10;5.43;;;;;;;18.67;58.92;100426.00;5135220;27;20071;-70
2022/06/19 02:05:33;;;;;;;10.15;5.38;;;;;;;18.74;58.34;100424.06;5135377;27;20051;-70
2022/06/19 02:07:59;;;;;;;12.63;4.85;;;;;;;18.70;58.84;100412.81;5135576;27;20082;-70
2022/06/19 02:10:26;;;;;;;8.27;5.05;;;;;;;18.76;58.33;100416.53;5135333;27;20090;-70
2022/06/19 02:12:53;;;;;;;12.35;5.68;;;;;;;18.70;58.52;100406.53;5135210;27;20039;-70
2022/06/19 02:15:20;;;;;;;7.45;5.13;;;;;;;18.69;58.58;100407.59;5134234;27;20070;-70
2022/06/19 02:17:51;;;;;;;11.98;4.60;;;;;;;18.67;58.20;100402.38;5135563;27;20116;-70
2022/06/19 02:20:19;;;;;;;10.93;4.55;;;;;;;18.71;58.16;100406.31;5135242;27;20133;-70
2022/06/19 02:22:47;;;;;;;11.88;4.75;;;;;;;18.60;58.95;100393.44;5135316;27;20090;-70
2022/06/19 02:25:14;;;;;;;14.07;6.28;;;;;;;18.60;58.54;100395.34;5134679;27;20546;-70
2022/06/19 02:27:41;;;;;;;12.70;4.88;;;;;;;18.49;58.99;100384.13;5135091;27;20047;-70
2022/06/19 02:30:11;;;;;;;9.80;5.20;;;;;;;18.45;59.30;100374.78;5135158;27;20115;-70
2022/06/19 02:32:45;;;;;;;9.32;4.43;;;;;;;18.55;58.88;100379.72;5134873;27;20138;-70
2022/06/19 02:35:17;;;;;;;9.55;4.47;;;;;;;18.53;58.94;100366.34;5135209;27;20043;-70
2022/06/19 02:37:51;;;;;;;9.88;4.50;;;;;;;18.52;58.97;100369.28;5134933;27;20047;-71
2022/06/19 02:40:41;;;;;;;9.25;5.20;;;;;;;18.45;58.81;100369.34;5135009;28;20129;-70
2022/06/19 02:43:14;;;;;;;10.02;4.40;;;;;;;18.41;58.97;100356.41;5134950;28;20051;-70
2022/06/19 02:45:42;;;;;;;11.45;4.85;;;;;;;18.46;59.05;100356.59;5135262;28;20134;-70
2022/06/19 02:48:21;;;;;;;9.00;4.78;;;;;;;18.50;58.94;100345.03;5134498;28;20043;-69
2022/06/19 02:50:48;;;;;;;10.50;4.82;;;;;;;18.54;58.55;100340.81;5134791;28;20478;-69
2022/06/19 02:53:16;;;;;;;12.38;4.75;;;;;;;18.48;58.99;100332.72;5134850;28;20490;-70
2022/06/19 02:55:42;;;;;;;8.82;5.20;;;;;;;18.54;58.60;100329.97;5135122;28;20142;-69
2022/06/19 02:58:10;;;;;;;17.35;5.10;;;;;;;18.55;58.64;100331.66;5134795;28;20452;-69
2022/06/19 03:00:38;;;;;;;10.05;4.72;;;;;;;18.58;58.50;100332.22;5134843;28;20138;-69
2022/06/19 03:03:16;;;;;;;8.88;4.78;;;;;;;18.61;58.58;100327.19;5134684;28;20078;-69
2022/06/19 03:05:43;;;;;;;9.10;4.78;;;;;;;18.63;58.45;100332.41;5134503;28;20083;-69
2022/06/19 03:08:09;;;;;;;16.00;5.45;;;;;;;18.59;58.56;100336.63;5135084;28;20112;-69
2022/06/19 03:10:36;;;;;;;10.35;4.80;;;;;;;18.62;58.54;100319.84;5134614;28;20082;-69
2022/06/19 03:13:03;;;;;;;10.57;4.72;;;;;;;18.55;58.43;100320.78;5134284;28;20245;-69
2022/06/19 03:15:30;;;;;;;10.15;4.75;;;;;;;18.63;58.38;100313.41;5134624;27;20131;-69
2022/06/19 03:17:57;;;;;;;8.35;4.93;;;;;;;18.60;58.70;100311.13;5134585;28;20102;-69
2022/06/19 03:20:25;;;;;;;14.77;4.80;;;;;;;18.63;58.56;100306.06;5134661;28;20568;-69
2022/06/19 03:22:52;;;;;;;12.43;5.05;;;;;;;18.64;58.57;100301.47;5134335;28;20122;-69
2022/06/19 03:25:19;;;;;;;11.32;5.13;;;;;;;18.65;58.49;100284.09;5134123;27;20105;-69
2022/06/19 03:27:47;;;;;;;13.07;5.35;;;;;;;18.64;58.46;100275.13;5138587;27;20519;-70
2022/06/19 03:30:18;;;;;;;9.52;5.35;;;;;;;18.62;58.55;100266.38;5138616;27;20054;-70
2022/06/19 03:32:45;;;;;;;10.05;4.85;;;;;;;18.64;58.58;100264.25;5138218;27;20047;-70
2022/06/19 03:35:13;;;;;;;11.43;5.05;;;;;;;18.63;58.97;100267.22;5138476;27;20479;-69
2022/06/19 03:37:39;;;;;;;10.23;5.00;;;;;;;18.65;58.71;100270.50;5138394;27;20074;-70
2022/06/19 03:40:07;;;;;;;9.50;4.90;;;;;;;18.66;58.34;100270.31;5138392;27;20130;-69
2022/06/19 03:42:34;;;;;;;11.13;4.93;;;;;;;18.69;58.53;100269.03;5138513;27;20092;-70
2022/06/19 03:45:00;;;;;;;10.02;4.97;;;;;;;18.68;58.48;100267.34;5138417;27;20082;-70
2022/06/19 03:47:27;;;;;;;8.95;4.82;;;;;;;18.71;58.42;100258.75;5138339;27;20131;-70
2022/06/19 03:49:54;;;;;;;19.40;5.63;;;;;;;18.68;58.39;100260.03;5138109;27;20051;-70
2022/06/19 03:52:20;;;;;;;11.65;5.10;;;;;;;18.69;58.68;100258.16;5138327;27;20125;-70
2022/06/19 03:54:47;;;;;;;11.18;4.95;;;;;;;18.75;58.42;100254.53;5138556;27;20161;-70
2022/06/19 03:57:14;;;;;;;18.05;7.97;;;;;;;18.76;58.46;100240.72;5138939;27;20055;-70
2022/06/19 03:59:42;;;;;;;13.70;5.55;;;;;;;18.79;58.38;100248.44;5138676;27;20047;-71
2022/06/19 04:02:10;;;;;;;9.68;5.85;;;;;;;18.77;58.45;100249.72;5138401;27;20108;-70
2022/06/19 04:04:39;;;;;;;13.75;5.47;;;;;;;18.70;58.52;100236.19;5138288;27;20053;-71
2022/06/19 04:07:07;;;;;;;14.10;5.78;;;;;;;18.61;59.32;100237.53;5137724;27;20055;-71
2022/06/19 04:09:34;;;;;;;11.98;5.50;;;;;;;18.73;58.77;100232.19;5137847;27;20143;-70
2022/06/19 04:12:01;;;;;;;13.75;5.85;;;;;;;18.62;59.19;100232.91;5137618;27;20082;-71
2022/06/19 04:14:27;;;;;;;14.88;6.05;;;;;;;18.59;59.20;100238.84;5138187;27;20075;-70
2022/06/19 04:16:54;;;;;;;17.42;5.30;;;;;;;18.69;59.11;100228.28;5137803;27;20138;-70
2022/06/19 04:19:20;;;;;;;17.65;6.20;;;;;;;18.75;58.81;100221.91;5138051;27;20043;-69
2022/06/19 04:21:47;;;;;;;12.68;5.53;;;;;;;18.84;58.56;100214.31;5138002;27;20125;-70
2022/06/19 04:24:16;;;;;;;15.23;6.18;;;;;;;18.74;58.81;100214.81;5137754;27;20108;-70
2022/06/19 04:26:43;;;;;;;14.85;6.80;;;;;;;18.69;58.98;100214.69;5137105;27;20083;-70
2022/06/19 04:29:10;;;;;;;12.50;5.90;;;;;;;18.69;59.03;100217.41;5137261;27;20130;-70
2022/06/19 04:31:37;;;;;;;9.07;6.38;;;;;;;18.64;59.18;100192.78;5137121;27;20468;-70
2022/06/19 04:34:04;;;;;;;11.30;6.22;;;;;;;18.61;59.57;100193.22;5137303;27;20055;-70
2022/06/19 04:36:30;;;;;;;13.10;6.60;;;;;;;18.46;59.81;100188.19;5137921;27;20077;-69
2022/06/19 04:38:58;;;;;;;13.50;6.60;;;;;;;18.46;59.74;100199.88;5136680;27;20554;-69
2022/06/19 04:41:26;;;;;;;10.85;6.13;;;;;;;18.59;59.27;100184.50;5137493;27;20070;-69
2022/06/19 04:43:53;;;;;;;11.52;6.70;;;;;;;18.60;59.41;100197.84;5136811;27;20047;-70
2022/06/19 04:46:21;;;;;;;16.98;7.10;;;;;;;18.55;59.68;100190.38;5136922;27;20061;-70
2022/06/19 04:48:48;;;;;;;11.40;7.40;;;;;;;18.66;59.48;100202.38;5138978;27;20051;-70
2022/06/19 04:51:16;;;;;;;9.93;5.97;;;;;;;18.66;59.29;100202.38;5137298;27;20435;-70
2022/06/19 04:53:43;;;;;;;14.13;7.28;;;;;;;18.49;59.67;100198.59;5136826;27;20039;-69
2022/06/19 04:56:13;;;;;;;13.35;6.72;;;;;;;18.54;59.56;100190.59;5136787;27;20461;-69
2022/06/19 04:58:40;;;;;;;21.17;7.30;;;;;;;18.58;59.08;100189.06;5136930;27;20500;-69
2022/06/19 05:01:09;;;;;;;10.20;7.15;;;;;;;18.52;59.63;100185.41;5136631;27;20527;-69
2022/06/19 05:03:37;;;;;;;20.13;6.75;;;;;;;18.63;58.98;100191.13;5136376;27;20130;-69
2022/06/19 05:06:04;;;;;;;20.60;6.75;;;;;;;18.67;59.18;100185.00;5136269;27;20082;-70
2022/06/19 05:08:32;;;;;;;16.70;6.72;;;;;;;18.63;58.98;100169.41;5136462;27;20081;-69
2022/06/19 05:10:59;;;;;;;13.38;6.65;;;;;;;18.67;58.85;100170.59;5136394;27;20137;-69
2022/06/19 05:13:26;;;;;;;13.80;6.60;;;;;;;18.73;58.71;100166.97;5136066;27;20397;-69
2022/06/19 05:16:05;;;;;;;16.83;7.22;;;;;;;18.89;57.88;100165.50;5136302;27;20079;-69
2022/06/19 05:18:34;;;;;;;17.02;7.25;;;;;;;18.95;57.98;100164.63;5136338;27;20475;-69
2022/06/19 05:21:01;;;;;;;17.70;6.97;;;;;;;18.95;57.83;100157.31;5136335;27;20082;-70
2022/06/19 05:23:29;;;;;;;17.33;7.10;;;;;;;19.05;57.44;100158.66;5136136;27;20414;-70
2022/06/19 05:26:05;;;;;;;14.10;6.88;;;;;;;19.12;57.33;100156.69;5135833;27;20145;-70
2022/06/19 05:28:33;;;;;;;19.45;7.10;;;;;;;19.19;57.55;100151.97;5135739;27;20086;-70
2022/06/19 05:31:00;;;;;;;19.02;6.97;;;;;;;19.14;56.91;100149.09;5136553;27;20133;-69
2022/06/19 05:33:29;;;;;;;17.13;7.32;;;;;;;19.15;56.72;100142.63;5136366;27;20046;-70
2022/06/19 05:35:57;;;;;;;17.60;7.20;;;;;;;19.35;55.91;100135.00;5135918;27;20047;-70
2022/06/19 05:38:25;;;;;;;15.45;7.28;;;;;;;19.41;55.77;100134.06;5136429;27;20079;-69
2022/06/19 05:40:53;;;;;;;15.30;7.43;;;;;;;19.46;54.87;100127.94;5136961;27;20047;-69
2022/06/19 05:43:20;;;;;;;23.60;6.88;;;;;;;19.62;54.57;100124.53;5136112;27;20533;-70
2022/06/19 05:45:59;;;;;;;19.00;7.45;;;;;;;19.77;53.96;100120.56;5136402;27;20126;-69
2022/06/19 05:48:28;;;;;;;23.15;7.72;;;;;;;19.91;54.61;100116.53;5136488;27;20054;-71
2022/06/19 05:51:06;;;;;;;20.27;7.10;;;;;;;19.91;54.37;100111.91;5140367;27;20112;-70
2022/06/19 05:53:38;;;;;;;24.42;6.75;;;;;;;20.01;53.02;100110.50;5137155;27;20039;-70
2022/06/19 05:56:05;;;;;;;22.67;7.32;;;;;;;19.98;53.13;100106.34;5136686;27;20099;-70
2022/06/19 05:58:33;;;;;;;26.85;6.78;;;;;;;20.05;52.61;100106.22;5142541;27;20086;-69
2022/06/19 06:01:01;;;;;;;27.45;7.30;;;;;;;20.14;52.73;100093.88;5139164;27;20444;-70
2022/06/19 06:03:28;;;;;;;17.98;5.93;;;;;;;20.30;51.76;100093.16;5136616;27;20078;-69
2022/06/19 06:06:00;;;;;;;19.80;6.75;;;;;;;20.40;51.40;100093.41;5136130;27;20047;-69
2022/06/19 06:08:26;;;;;;;19.60;6.97;;;;;;;20.51;51.15;100083.53;5135384;27;20043;-70
2022/06/19 06:10:53;;;;;;;21.77;7.03;;;;;;;20.55;50.57;100084.72;5135038;27;20078;-70
2022/06/19 06:13:19;;;;;;;22.33;6.65;;;;;;;20.72;50.01;100089.41;5135797;27;20510;-70
2022/06/19 06:15:46;;;;;;;22.67;7.13;;;;;;;20.78;50.26;100078.34;5135308;27;20130;-70
2022/06/19 06:18:14;;;;;;;18.10;6.25;;;;;;;20.86;49.11;100080.69;5135566;27;20051;-70
2022/06/19 06:20:41;;;;;;;20.13;6.72;;;;;;;21.03;49.21;100060.81;5135242;27;20134;-70
2022/06/19 06:23:08;;;;;;;23.83;7.35;;;;;;;21.04;48.64;100076.94;5135447;27;20126;-70
2022/06/19 06:25:37;;;;;;;22.92;7.32;;;;;;;21.15;48.26;100072.53;5134864;27;20055;-72
2022/06/19 06:28:03;;;;;;;24.55;6.65;;;;;;;21.33;47.66;100061.38;5135122;27;20047;-71
2022/06/19 06:30:31;;;;;;;23.00;6.80;;;;;;;21.45;47.70;100055.81;5134883;27;20051;-70
2022/06/19 06:33:03;;;;;;;28.63;6.15;;;;;;;21.64;47.09;100047.38;5134771;27;20043;-71
2022/06/19 06:35:30;;;;;;;20.10;6.32;;;;;;;21.66;47.01;100039.75;5135725;27;20061;-72
2022/06/19 06:38:00;;;;;;;23.92;7.32;;;;;;;21.82;46.25;100033.47;5135523;27;20079;-72
2022/06/19 06:40:28;;;;;;;22.10;6.90;;;;;;;21.97;46.70;100032.84;5135706;28;20051;-71
2022/06/19 06:42:55;;;;;;;18.13;5.90;;;;;;;22.10;45.09;100018.84;5136015;28;20054;-71
2022/06/19 06:45:22;;;;;;;18.92;6.43;;;;;;;22.14;44.75;100014.50;5134820;28;20078;-71
2022/06/19 06:47:49;;;;;;;34.60;6.90;;;;;;;22.41;44.61;100016.47;5134814;28;20492;-71
2022/06/19 06:50:15;;;;;;;22.48;5.57;;;;;;;22.56;43.81;100019.41;5134627;28;20083;-71
2022/06/19 06:52:42;;;;;;;24.38;7.00;;;;;;;22.70;43.84;100014.34;5134939;28;20079;-71
2022/06/19 06:55:09;;;;;;;24.33;6.38;;;;;;;22.98;43.16;100010.50;5134664;28;20103;-72
2022/06/19 06:57:36;;;;;;;28.27;6.47;;;;;;;23.16;42.59;99998.41;5134640;28;20149;-71
2022/06/19 07:00:05;;;;;;;24.15;6.38;;;;;;;23.38;42.17;100001.03;5134794;27;20434;-71
2022/06/19 07:02:31;;;;;;;24.90;5.70;;;;;;;23.48;41.16;100001.09;5138497;27;20089;-71
2022/06/19 07:04:58;;;;;;;22.95;5.72;;;;;;;23.81;40.64;99991.72;5139729;27;20134;-71
2022/06/19 07:07:25;;;;;;;25.85;6.07;;;;;;;23.93;40.05;99991.53;5139197;27;20402;-71
2022/06/19 07:09:51;;;;;;;17.98;5.40;;;;;;;24.27;39.42;99999.34;5139199;27;20137;-71
2022/06/19 07:12:18;;;;;;;12.30;4.75;;;;;;;24.79;38.50;99996.47;5138645;27;20070;-71
2022/06/19 07:14:44;;;;;;;21.25;5.35;;;;;;;24.96;37.54;99990.72;5138275;27;20087;-71
2022/06/19 07:17:11;;;;;;;16.35;4.88;;;;;;;25.34;36.38;99994.84;5138789;27;20463;-71
2022/06/19 07:19:37;;;;;;;20.20;5.20;;;;;;;25.38;35.68;99993.19;5138505;27;20099;-71
2022/06/19 07:22:04;;;;;;;21.23;5.75;;;;;;;25.65;35.82;99983.84;5138886;27;20478;-71
2022/06/19 07:24:31;;;;;;;29.83;5.63;;;;;;;25.91;35.29;99978.25;5138507;27;20054;-71
2022/06/19 07:26:58;;;;;;;21.58;5.05;;;;;;;26.20;35.07;99986.66;5139287;27;20079;-70
2022/06/19 07:29:25;;;;;;;23.17;5.15;;;;;;;26.77;34.10;99991.59;5138366;27;20086;-70
2022/06/19 07:31:53;;;;;;;16.63;4.85;;;;;;;26.77;34.27;99988.03;5120728;27;20123;-70
2022/06/19 07:34:20;;;;;;;20.08;5.00;;;;;;;27.13;33.71;99990.47;5138590;27;20035;-71
2022/06/19 07:36:51;;;;;;;24.70;5.57;;;;;;;27.32;32.94;99982.38;5138348;27;20054;-71
2022/06/19 07:39:19;;;;;;;16.65;4.55;;;;;;;27.58;32.43;99980.97;5138846;27;20083;-71
2022/06/19 07:41:45;;;;;;;26.35;4.38;;;;;;;27.42;32.62;99977.56;5138273;27;20043;-71
2022/06/19 07:44:12;;;;;;;32.42;5.88;;;;;;;27.93;31.87;99971.50;5138423;27;20089;-70
2022/06/19 07:50:09;;;;;;;30.60;4.80;;;;;;;27.94;31.45;99978.66;5138203;27;20051;-71
2022/06/19 07:52:10;;;;;;;23.73;5.47;;;;;;;28.34;30.01;99983.94;5138260;27;20478;-70
2022/06/19 07:54:37;;;;;;;29.05;4.65;;;;;;;28.18;30.06;99997.94;5138216;27;20487;-70
2022/06/19 07:57:04;;;;;;;21.80;5.25;;;;;;;28.70;29.56;99992.56;5138515;27;20482;-70
2022/06/19 07:59:30;;;;;;;23.23;4.30;;;;;;;29.38;28.44;99993.94;5137577;27;20082;-70
2022/06/19 08:01:57;;;;;;;20.55;5.35;;;;;;;29.09;28.43;99991.41;5138213;27;20078;-70
2022/06/19 08:04:33;;;;;;;20.20;4.80;;;;;;;29.69;27.94;99993.38;5137523;27;20125;-70
2022/06/19 08:07:09;;;;;;;44.03;6.07;;;;;;;29.45;27.95;99985.25;5137599;27;20047;-70
2022/06/19 08:09:35;;;;;;;25.70;5.57;;;;;;;29.85;27.30;99991.97;5137408;27;20072;-70
2022/06/19 08:12:02;;;;;;;26.13;4.78;;;;;;;29.99;27.11;99980.91;5137076;27;20101;-70
2022/06/19 08:14:28;;;;;;;24.38;4.63;;;;;;;29.88;27.37;99979.44;5137682;27;20071;-70
2022/06/19 08:16:55;;;;;;;25.90;4.68;;;;;;;29.88;27.05;99985.81;5137615;27;20129;-71
2022/06/19 08:19:22;;;;;;;19.48;4.20;;;;;;;29.55;26.77;99972.06;5137405;27;20130;-69
2022/06/19 08:21:49;;;;;;;26.20;4.80;;;;;;;29.86;26.78;99971.47;5137493;27;20502;-70
2022/06/19 08:24:15;;;;;;;54.90;5.82;;;;;;;29.76;26.42;99969.72;5137142;27;20138;-71
2022/06/19 08:26:42;;;;;;;23.85;4.68;;;;;;;30.02;26.27;99964.53;5138057;27;20146;-70
2022/06/19 08:29:09;;;;;;;25.02;5.57;;;;;;;29.76;26.40;99966.16;5136867;27;20093;-71
2022/06/19 08:31:36;;;;;;;39.97;6.32;;;;;;;30.02;25.85;99949.88;5137260;27;20074;-71
2022/06/19 08:34:03;;;;;;;30.13;6.13;;;;;;;30.04;25.49;99953.97;5118843;27;20047;-70
2022/06/19 08:36:34;;;;;;;55.03;6.93;;;;;;;30.07;25.14;99947.00;5137292;27;20138;-71
2022/06/19 08:39:04;;;;;;;20.85;5.57;;;;;;;30.70;24.77;99946.13;5119160;27;20142;-70
2022/06/19 08:41:45;;;;;;;30.63;6.27;;;;;;;30.95;24.71;99938.28;5136887;27;20051;-71
2022/06/19 08:44:43;;;;;;;40.47;8.00;;;;;;;30.59;24.41;99944.72;5137330;27;20130;-71
2022/06/19 08:47:12;;;;;;;34.05;7.13;;;;;;;31.21;24.06;99922.69;5136825;27;20047;-71
2022/06/19 08:49:57;;;;;;;27.15;7.60;;;;;;;30.82;24.00;99933.69;5136953;27;20409;-72
2022/06/19 08:52:32;;;;;;;60.70;9.82;;;;;;;30.77;23.95;99926.28;5137694;27;20446;-71
2022/06/19 08:55:41;;;;;;;43.60;8.90;;;;;;;31.01;23.51;99926.81;5137193;27;20055;-71
2022/06/19 08:58:26;;;;;;;35.95;8.63;;;;;;;30.88;23.71;99935.16;5136848;27;20134;-70
2022/06/19 09:01:23;;;;;;;36.28;9.18;;;;;;;31.13;23.15;99920.69;5136794;27;20047;-71
2022/06/19 09:07:06;;;;;;;76.28;11.02;;;;;;;31.50;22.95;99921.31;5136711;27;20051;-71
2022/06/19 09:09:57;;;;;;;37.63;7.85;;;;;;;31.51;23.11;99919.41;5129030;27;20051;-72
2022/06/19 09:12:44;;;;;;;34.20;7.85;;;;;;;32.02;22.73;99929.03;5136634;27;20090;-71
2022/06/19 09:15:15;;;;;;;39.20;8.45;;;;;;;32.23;21.96;99924.47;5137030;27;20086;-71
2022/06/19 09:18:02;;;;;;;;;;;;;;;32.28;22.20;99937.41;5136941;27;20051;-70
2022/06/19 09:20:44;;;;;;;29.38;8.25;;;;;;;32.72;20.95;99924.34;5136271;27;20387;-71
2022/06/19 09:23:52;;;;;;;45.33;7.68;;;;;;;32.25;21.23;99916.66;5136198;27;20118;-70
2022/06/19 09:26:27;;;;;;;25.27;6.53;;;;;;;32.34;20.68;99920.25;5052953;28;20136;-71
2022/06/19 09:29:07;;;;;;;35.28;7.03;;;;;;;32.13;20.80;99920.09;5052694;28;20080;-70
2022/06/19 09:31:42;;;;;;;45.22;8.15;;;;;;;32.01;21.13;99908.81;5052765;28;20147;-72
2022/06/19 09:34:30;;;;;;;41.92;7.85;;;;;;;32.21;20.72;99903.78;5052583;28;20049;-70
2022/06/19 09:36:59;;;;;;;26.98;6.00;;;;;;;32.63;20.97;99897.41;5052574;28;20532;-71
2022/06/19 09:39:42;;;;;;;37.53;7.50;;;;;;;32.74;20.57;99884.00;5052385;28;20128;-71
2022/06/19 09:42:16;;;;;;;31.80;6.15;;;;;;;33.09;19.98;99886.69;5052569;28;20052;-71
2022/06/19 09:45:00;;;;;;;30.23;7.47;;;;;;;32.63;20.43;99877.16;5052304;28;20512;-71
2022/06/19 09:47:42;;;;;;;33.22;7.30;;;;;;;33.23;20.00;99867.03;5052395;28;20160;-71
2022/06/19 09:50:43;;;;;;;52.60;7.25;;;;;;;32.62;19.68;99894.97;5052520;28;20083;-71
2022/06/19 09:53:22;;;;;;;27.48;5.20;;;;;;;33.31;19.21;99903.13;5052197;28;20128;-71
2022/06/19 09:56:15;;;;;;;43.53;6.38;;;;;;;33.69;18.69;99898.72;5053076;28;20357;-72
2022/06/19 09:59:01;;;;;;;48.67;5.78;;;;;;;33.58;18.57;99896.34;5052285;28;20148;-72
2022/06/19 10:01:29;;;;;;;67.00;7.30;;;;;;;33.40;18.50;99893.94;5112625;28;20048;-71
2022/06/19 10:04:08;;;;;;;36.15;5.63;;;;;;;33.27;18.95;99893.00;5114605;28;20127;-71
2022/06/19 10:06:43;;;;;;;48.92;5.75;;;;;;;33.21;18.79;99886.81;5115178;28;20116;-71
2022/06/19 10:09:18;;;;;;;73.63;8.80;;;;;;;33.12;18.99;99889.63;5115452;28;20079;-71
2022/06/19 10:11:46;;;;;;;26.23;4.88;;;;;;;33.11;18.92;99876.88;5114555;28;20090;-71
2022/06/19 10:14:32;;;;;;;27.55;5.18;;;;;;;33.56;19.03;99875.56;5114480;28;20130;-72
2022/06/19 10:17:03;;;;;;;31.73;5.68;;;;;;;33.95;18.84;99881.88;5114416;28;20085;-72
2022/06/19 10:19:43;;;;;;;24.55;5.05;;;;;;;33.73;18.68;99871.88;5115470;28;20079;-72
2022/06/19 10:22:15;;;;;;;27.95;5.43;;;;;;;33.67;18.71;99882.38;5114536;28;20131;-71
2022/06/19 10:25:19;;;;;;;31.25;5.07;;;;;;;33.35;18.78;99865.19;5121147;27;20137;-71
2022/06/19 10:28:00;;;;;;;28.60;5.18;;;;;;;33.52;18.89;99867.09;5135177;27;20047;-71
2022/06/19 10:30:35;;;;;;;27.73;4.65;;;;;;;33.38;18.94;99874.81;5117094;27;20096;-71
2022/06/19 10:33:37;;;;;;;27.63;5.57;;;;;;;33.64;19.06;99865.53;5135201;27;20046;-71
2022/06/19 10:36:11;;;;;;;26.63;4.53;;;;;;;34.12;18.62;99861.47;5102149;27;20069;-71
2022/06/19 10:38:47;;;;;;;34.33;5.18;;;;;;;34.26;18.13;99857.22;5135236;27;20083;-72
2022/06/19 10:44:40;;;;;;;40.20;5.50;;;;;;;33.66;19.26;99860.47;5136215;28;20067;-71
2022/06/19 10:47:28;;;;;;;27.13;4.57;;;;;;;33.16;19.19;99850.88;5135740;28;20125;-71
2022/06/19 10:50:01;;;;;;;29.98;5.53;;;;;;;33.15;19.71;99856.78;5134693;28;20138;-71
2022/06/19 10:52:43;;;;;;;28.23;4.72;;;;;;;33.27;19.37;99854.09;5135009;28;20130;-71
2022/06/19 10:55:12;;;;;;;24.13;4.97;;;;;;;33.37;19.55;99834.25;5135490;28;20482;-71
2022/06/19 10:57:54;;;;;;;34.15;4.53;;;;;;;33.10;19.86;99836.38;5135282;28;20535;-71
2022/06/19 11:00:21;;;;;;;29.17;5.13;;;;;;;32.94;19.57;99832.47;5135022;28;20082;-71
2022/06/19 11:05:55;;;;;;;27.75;4.63;;;;;;;32.74;20.29;99824.84;5134773;28;20060;-71
2022/06/19 11:08:28;;;;;;;23.15;4.78;;;;;;;33.02;19.92;99826.06;5134734;28;20517;-71
2022/06/19 11:10:58;;;;;;;32.90;6.97;;;;;;;33.00;20.40;99822.03;5134691;28;20083;-71
2022/06/19 11:14:03;;;;;;;20.77;4.82;;;;;;;32.86;20.02;99805.53;5134745;28;20067;-71
2022/06/19 11:16:32;;;;;;;24.23;4.68;;;;;;;32.77;20.24;99813.09;5134664;27;20051;-71
2022/06/19 11:18:59;;;;;;;26.65;4.30;;;;;;;32.76;20.39;99803.13;5134644;28;20058;-71
2022/06/19 11:21:34;;;;;;;21.48;4.68;;;;;;;32.84;20.03;99796.72;5134681;28;20486;-71
2022/06/19 11:24:04;;;;;;;29.00;5.00;;;;;;;33.05;19.93;99800.41;5134224;28;20067;-71
2022/06/19 11:26:41;;;;;;;33.47;6.20;;;;;;;33.11;19.85;99807.41;5134140;28;20051;-71
2022/06/19 11:29:13;;;;;;;29.13;6.13;;;;;;;33.10;20.46;99816.09;5134143;28;20134;-72
2022/06/19 11:32:09;;;;;;;37.72;5.28;;;;;;;33.62;19.40;99823.34;5134525;28;20142;-71
2022/06/19 11:34:45;;;;;;;26.83;5.05;;;;;;;33.33;19.78;99824.94;5117869;28;20528;-71
2022/06/19 11:37:23;;;;;;;31.50;4.78;;;;;;;33.00;19.96;99814.50;5134022;28;20089;-71
2022/06/19 11:39:59;;;;;;;21.05;4.78;;;;;;;32.69;20.51;99820.31;5134557;28;20090;-71
2022/06/19 11:42:33;;;;;;;25.88;4.90;;;;;;;32.54;21.08;99812.47;5134781;28;20510;-71
2022/06/19 11:45:20;;;;;;;23.70;4.63;;;;;;;32.23;21.35;99818.22;5134318;28;20051;-71
2022/06/19 11:47:53;;;;;;;27.48;5.13;;;;;;;32.30;21.36;99827.69;5137224;27;20075;-72
2022/06/19 11:50:33;;;;;;;31.40;4.53;;;;;;;32.34;21.40;99825.09;5119949;27;20054;-72
2022/06/19 11:53:05;;;;;;;18.37;4.43;;;;;;;32.40;22.00;99834.84;5138249;27;20093;-72
2022/06/19 11:55:37;;;;;;;37.55;6.00;;;;;;;31.98;25.07;99840.06;5137535;27;20348;-72
2022/06/19 11:58:39;;;;;;;27.13;5.28;;;;;;;32.04;26.01;99838.81;5138142;27;20083;-72